createdAt,value
2022-10-11T00:00:55.279Z,8.47
2022-10-11T00:03:23.975Z,12.60
2022-10-11T00:05:54.973Z,15.47
2022-10-11T00:08:23.618Z,11.10
2022-10-11T00:11:00.762Z,10.23
2022-10-11T00:13:29.659Z,9.35
2022-10-11T00:15:58.415Z,9.90
2022-10-11T00:18:26.957Z,10.70
2022-10-11T00:21:03.020Z,10.20
2022-10-11T00:23:31.229Z,16.90
2022-10-11T00:26:03.063Z,12.03
2022-10-11T00:28:31.904Z,14.13
2022-10-11T00:31:00.105Z,11.97
2022-10-11T00:33:28.281Z,11.60
2022-10-11T00:35:56.330Z,9.30
2022-10-11T00:38:24.520Z,9.90
2022-10-11T00:40:52.868Z,12.10
2022-10-11T00:43:24.402Z,11.03
2022-10-11T00:46:25.480Z,10.13
2022-10-11T00:48:58.576Z,10.70
2022-10-11T00:51:38.878Z,10.77
2022-10-11T00:54:08.722Z,10.00
2022-10-11T00:56:39.092Z,14.47
2022-10-11T00:59:15.965Z,9.30
2022-10-11T01:01:44.252Z,15.57
2022-10-11T01:04:12.440Z,15.43
2022-10-11T01:06:41.537Z,11.83
2022-10-11T01:09:10.834Z,10.20
2022-10-11T01:11:42.163Z,11.70
2022-10-11T01:14:37.441Z,11.60
2022-10-11T01:17:14.984Z,9.80
2022-10-11T01:20:01.311Z,13.80
2022-10-11T01:22:51.185Z,11.67
2022-10-11T01:25:28.421Z,12.70
2022-10-11T01:28:11.840Z,9.37
2022-10-11T01:30:42.620Z,13.97
2022-10-11T01:33:28.397Z,14.53
2022-10-11T01:36:07.120Z,9.60
2022-10-11T01:38:39.065Z,12.30
2022-10-11T01:41:11.287Z,9.30
2022-10-11T01:43:41.904Z,8.43
2022-10-11T01:46:12.348Z,12.37
2022-10-11T01:48:51.487Z,8.20
2022-10-11T01:51:22.402Z,12.20
2022-10-11T01:54:14.789Z,15.23
2022-10-11T01:57:05.565Z,11.37
2022-10-11T01:59:45.520Z,9.70
2022-10-11T02:02:30.320Z,12.77
2022-10-11T02:05:07.087Z,11.03
2022-10-11T02:07:42.127Z,9.87
2022-10-11T02:10:16.743Z,11.10
2022-10-11T02:12:49.684Z,10.47
2022-10-11T02:15:20.127Z,8.60
2022-10-11T02:17:55.861Z,14.17
2022-10-11T02:20:27.294Z,9.90
2022-10-11T02:23:04.393Z,12.73
2022-10-11T02:25:37.019Z,11.30
2022-10-11T02:28:10.357Z,11.30
2022-10-11T02:30:39.106Z,13.70
2022-10-11T02:33:12.383Z,13.03
2022-10-11T02:35:46.637Z,10.70
2022-10-11T02:38:21.657Z,12.80
2022-10-11T02:40:55.495Z,8.97
2022-10-11T02:43:30.879Z,12.30
2022-10-11T02:46:01.366Z,11.60
2022-10-11T02:48:33.214Z,9.23
2022-10-11T02:51:01.346Z,12.80
2022-10-11T02:53:29.517Z,12.73
2022-10-11T02:55:57.642Z,13.90
2022-10-11T02:58:26.238Z,11.33
2022-10-11T03:00:54.329Z,9.93
2022-10-11T03:03:22.428Z,11.60
2022-10-11T03:05:51.864Z,11.43
2022-10-11T03:08:19.893Z,14.40
2022-10-11T03:10:48.310Z,8.00
2022-10-11T03:13:18.537Z,13.87
2022-10-11T03:16:01.845Z,8.97
2022-10-11T03:18:31.339Z,10.60
2022-10-11T03:21:00.767Z,10.30
2022-10-11T03:23:28.929Z,8.70
2022-10-11T03:25:57.192Z,13.27
2022-10-11T03:28:25.466Z,11.13
2022-10-11T03:30:53.994Z,11.27
2022-10-11T03:33:22.110Z,8.83
2022-10-11T03:35:50.877Z,11.73
2022-10-11T03:38:23.300Z,8.77
2022-10-11T03:40:51.763Z,7.53
2022-10-11T03:43:19.809Z,10.03
2022-10-11T03:45:47.913Z,10.20
2022-10-11T03:48:16.468Z,12.33
2022-10-11T03:50:44.606Z,12.30
2022-10-11T03:53:12.910Z,12.80
2022-10-11T03:55:42.917Z,12.07
2022-10-11T03:58:11.198Z,14.90
2022-10-11T04:00:40.446Z,12.13
2022-10-11T04:03:08.479Z,13.00
2022-10-11T04:05:36.558Z,10.27
2022-10-11T04:08:09.729Z,14.63
2022-10-11T04:10:40.250Z,11.40
2022-10-11T04:13:11.553Z,16.37
2022-10-11T04:15:41.224Z,15.13
2022-10-11T04:18:09.475Z,9.77
2022-10-11T04:20:37.625Z,12.87
2022-10-11T04:23:05.785Z,12.20
2022-10-11T04:25:33.995Z,10.43
2022-10-11T04:28:02.110Z,11.80
2022-10-11T04:30:31.579Z,12.00
2022-10-11T04:32:59.615Z,11.00
2022-10-11T04:35:27.987Z,11.70
2022-10-11T04:37:56.520Z,15.27
2022-10-11T04:40:25.035Z,10.80
2022-10-11T04:42:53.818Z,10.07
2022-10-11T04:45:22.287Z,12.90
2022-10-11T04:47:52.031Z,11.80
2022-10-11T04:50:20.459Z,14.13
2022-10-11T04:52:48.734Z,12.10
2022-10-11T04:55:17.100Z,12.00
2022-10-11T04:57:45.168Z,11.07
2022-10-11T05:00:14.370Z,10.90
2022-10-11T05:02:42.582Z,12.17
2022-10-11T05:05:12.961Z,11.93
2022-10-11T05:07:41.108Z,10.77
2022-10-11T05:10:10.329Z,9.97
2022-10-11T05:12:38.789Z,8.43
2022-10-11T05:15:08.414Z,11.00
2022-10-11T05:17:36.523Z,8.40
2022-10-11T05:20:04.878Z,12.10
2022-10-11T05:22:34.383Z,13.63
2022-10-11T05:25:02.638Z,18.47
2022-10-11T05:27:30.731Z,13.47
2022-10-11T05:29:58.926Z,10.30
2022-10-11T05:32:28.114Z,12.63
2022-10-11T05:34:56.410Z,9.63
2022-10-11T05:37:24.699Z,12.20
2022-10-11T05:39:54.881Z,10.30
2022-10-11T05:42:22.961Z,10.40
2022-10-11T05:44:51.452Z,13.50
2022-10-11T05:47:19.577Z,10.67
2022-10-11T05:49:47.681Z,9.00
2022-10-11T05:52:19.771Z,15.07
2022-10-11T05:54:48.041Z,13.37
2022-10-11T05:57:18.165Z,11.47
2022-10-11T05:59:46.600Z,10.03
2022-10-11T06:02:15.170Z,7.67
2022-10-11T06:04:43.355Z,10.07
2022-10-11T06:07:11.557Z,10.00
2022-10-11T06:09:39.766Z,10.90
2022-10-11T06:12:08.252Z,11.50
2022-10-11T06:14:38.323Z,11.50
2022-10-11T06:17:06.439Z,12.33
2022-10-11T06:19:34.504Z,11.83
2022-10-11T06:22:02.662Z,12.57
2022-10-11T06:24:30.878Z,13.63
2022-10-11T06:26:59.003Z,12.40
2022-10-11T06:29:27.137Z,10.60
2022-10-11T06:31:56.793Z,19.07
2022-10-11T06:34:24.987Z,32.23
2022-10-11T06:36:53.461Z,61.47
2022-10-11T06:39:21.686Z,59.70
2022-10-11T06:41:50.018Z,56.50
2022-10-11T06:44:18.218Z,41.60
2022-10-11T06:46:46.369Z,32.37
2022-10-11T06:49:20.712Z,34.93
2022-10-11T06:51:51.555Z,17.37
2022-10-11T06:54:19.749Z,16.57
2022-10-11T06:56:47.881Z,22.33
2022-10-11T06:59:15.940Z,13.47
2022-10-11T07:01:44.581Z,16.50
2022-10-11T07:04:12.730Z,17.60
2022-10-11T07:06:42.883Z,11.60
2022-10-11T07:09:11.339Z,11.33
2022-10-11T07:11:39.440Z,12.30
2022-10-11T07:14:08.119Z,11.43
2022-10-11T07:16:37.173Z,14.63
2022-10-11T07:19:07.011Z,8.93
2022-10-11T07:21:36.418Z,14.77
2022-10-11T07:24:06.731Z,11.70
2022-10-11T07:26:38.915Z,12.30
2022-10-11T07:29:07.872Z,14.20
2022-10-11T07:31:37.531Z,13.27
2022-10-11T07:34:05.681Z,14.40
2022-10-11T07:36:33.826Z,15.60
2022-10-11T07:39:01.992Z,9.00
2022-10-11T07:41:31.582Z,11.63
2022-10-11T07:44:00.997Z,13.57
2022-10-11T07:46:29.133Z,11.03
2022-10-11T07:48:57.242Z,12.30
2022-10-11T07:51:25.855Z,15.43
2022-10-11T07:53:55.941Z,16.20
2022-10-11T07:56:25.981Z,23.23
2022-10-11T07:58:57.293Z,10.57
2022-10-11T08:01:26.252Z,16.70
2022-10-11T08:03:56.836Z,13.27
2022-10-11T08:06:30.184Z,13.13
2022-10-11T08:09:00.473Z,12.80
2022-10-11T08:11:30.952Z,8.70
2022-10-11T08:14:01.695Z,9.83
2022-10-11T08:16:29.999Z,12.77
2022-10-11T08:18:58.229Z,11.20
2022-10-11T08:21:27.611Z,11.07
2022-10-11T08:23:55.660Z,9.07
2022-10-11T08:26:23.987Z,12.70
2022-10-11T08:28:52.138Z,11.30
2022-10-11T08:31:21.827Z,8.50
2022-10-11T08:33:50.235Z,11.30
2022-10-11T08:36:18.636Z,11.73
2022-10-11T08:38:46.688Z,9.70
2022-10-11T08:41:30.309Z,19.63
2022-10-11T08:44:12.924Z,11.80
2022-10-11T08:46:46.678Z,13.03
2022-10-11T08:49:25.673Z,12.90
2022-10-11T08:52:00.098Z,10.60
2022-10-11T08:54:38.510Z,12.07
2022-10-11T08:57:08.565Z,8.97
2022-10-11T08:59:42.544Z,10.10
2022-10-11T09:02:24.843Z,9.50
2022-10-11T09:04:55.633Z,14.10
2022-10-11T09:07:37.727Z,11.60
2022-10-11T09:10:21.489Z,11.90
2022-10-11T09:12:59.868Z,14.37
2022-10-11T09:15:37.758Z,16.60
2022-10-11T09:18:31.711Z,9.90
2022-10-11T09:21:12.493Z,10.47
2022-10-11T09:24:00.574Z,10.30
2022-10-11T09:26:32.172Z,9.80
2022-10-11T09:29:09.578Z,9.13
2022-10-11T09:31:37.831Z,9.27
2022-10-11T09:34:14.648Z,17.23
2022-10-11T09:36:51.100Z,9.97
2022-10-11T09:39:28.814Z,12.10
2022-10-11T09:42:01.394Z,6.57
2022-10-11T09:44:33.975Z,11.97
2022-10-11T09:47:02.186Z,8.70
2022-10-11T09:49:36.627Z,9.43
2022-10-11T09:52:07.288Z,16.43
2022-10-11T09:54:40.577Z,10.00
2022-10-11T09:57:23.055Z,10.33
2022-10-11T10:00:08.574Z,11.37
2022-10-11T10:02:44.567Z,11.23
2022-10-11T10:05:22.945Z,12.13
2022-10-11T10:08:05.098Z,8.93
2022-10-11T10:10:40.188Z,7.13
2022-10-11T10:13:20.707Z,12.80
2022-10-11T10:15:51.896Z,10.30
2022-10-11T10:18:24.916Z,11.17
2022-10-11T10:20:56.970Z,9.93
2022-10-11T10:23:27.421Z,14.13
2022-10-11T10:26:12.788Z,15.77
2022-10-11T10:28:54.846Z,13.00
2022-10-11T10:31:24.535Z,14.10
2022-10-11T10:33:55.459Z,9.63
2022-10-11T10:36:29.016Z,7.90
2022-10-11T10:39:02.626Z,8.57
2022-10-11T10:41:30.874Z,11.27
2022-10-11T10:44:00.859Z,11.43
2022-10-11T10:46:39.794Z,11.93
2022-10-11T10:52:30.811Z,6.83
2022-10-11T10:55:05.041Z,10.13
2022-10-11T10:57:38.924Z,10.53
2022-10-11T11:00:15.498Z,7.20
2022-10-11T11:02:51.220Z,9.07
2022-10-11T11:05:28.248Z,12.97
2022-10-11T11:08:05.836Z,10.83
2022-10-11T11:10:39.745Z,9.10
2022-10-11T11:13:20.486Z,8.17
2022-10-11T11:15:56.972Z,11.50
2022-10-11T11:18:40.044Z,11.20
2022-10-11T11:21:27.870Z,10.53
2022-10-11T11:24:05.967Z,8.63
2022-10-11T11:26:45.661Z,8.27
2022-10-11T11:29:26.516Z,10.97
2022-10-11T11:32:12.737Z,11.10
2022-10-11T11:34:44.629Z,5.80
2022-10-11T11:37:23.929Z,10.43
2022-10-11T11:39:58.231Z,11.63
2022-10-11T11:42:32.038Z,13.47
2022-10-11T11:45:06.627Z,7.20
2022-10-11T11:47:38.967Z,9.07
2022-10-11T11:50:22.440Z,8.60
2022-10-11T11:52:55.202Z,12.23
2022-10-11T11:55:32.440Z,6.27
2022-10-11T11:58:10.067Z,9.93
2022-10-11T12:00:49.948Z,9.63
2022-10-11T12:03:24.881Z,9.97
2022-10-11T12:06:19.287Z,8.23
2022-10-11T12:08:49.472Z,6.73
2022-10-11T12:11:26.255Z,10.00
2022-10-11T12:13:55.808Z,10.53
2022-10-11T12:16:24.776Z,7.47
2022-10-11T12:19:01.536Z,8.40
2022-10-11T12:21:33.667Z,9.37
2022-10-11T12:24:10.659Z,7.60
2022-10-11T12:26:42.940Z,9.03
2022-10-11T12:29:39.672Z,6.33
2022-10-11T12:32:52.656Z,8.97
2022-10-11T12:35:53.292Z,5.23
2022-10-11T12:38:24.072Z,8.10
2022-10-11T12:40:54.619Z,6.13
2022-10-11T12:43:33.398Z,6.80
2022-10-11T12:46:40.316Z,6.60
2022-10-11T12:49:23.023Z,6.67
2022-10-11T12:52:00.615Z,6.20
2022-10-11T12:54:56.986Z,5.50
2022-10-11T12:58:01.493Z,7.70
2022-10-11T13:00:33.152Z,6.70
2022-10-11T13:03:04.140Z,7.70
2022-10-11T13:05:45.203Z,7.97
2022-10-11T13:08:24.901Z,4.20
2022-10-11T13:10:54.294Z,7.30
2022-10-11T13:13:24.816Z,5.33
2022-10-11T13:15:57.393Z,7.30
2022-10-11T13:18:27.270Z,6.30
2022-10-11T13:20:55.496Z,6.60
2022-10-11T13:23:26.449Z,6.13
2022-10-11T13:25:55.544Z,6.97
2022-10-11T13:28:24.436Z,8.30
2022-10-11T13:30:57.313Z,6.20
2022-10-11T13:33:32.058Z,8.90
2022-10-11T13:36:01.570Z,9.33
2022-10-11T13:38:31.808Z,9.60
2022-10-11T13:41:02.698Z,6.47
2022-10-11T13:43:32.161Z,6.07
2022-10-11T13:46:05.240Z,5.87
2022-10-11T13:48:40.431Z,7.13
2022-10-11T13:51:10.553Z,6.27
2022-10-11T13:53:38.739Z,7.90
2022-10-11T13:56:09.517Z,5.53
2022-10-11T13:58:41.066Z,7.23
2022-10-11T14:01:21.437Z,5.03
2022-10-11T14:03:54.720Z,6.47
2022-10-11T14:06:23.520Z,8.60
2022-10-11T14:08:55.087Z,6.60
2022-10-11T14:11:35.750Z,5.90
2022-10-11T14:14:40.137Z,7.57
2022-10-11T14:17:15.997Z,5.97
2022-10-11T14:19:44.597Z,7.20
2022-10-11T14:22:16.065Z,7.33
2022-10-11T14:24:45.198Z,8.20
2022-10-11T14:27:19.251Z,7.57
2022-10-11T14:30:06.107Z,7.20
2022-10-11T14:32:37.562Z,8.47
2022-10-11T14:35:06.874Z,6.33
2022-10-11T14:37:40.541Z,8.57
2022-10-11T14:40:14.037Z,6.97
2022-10-11T14:42:42.254Z,8.53
2022-10-11T14:45:11.349Z,8.23
2022-10-11T14:47:43.125Z,9.03
2022-10-11T14:50:32.622Z,11.33
2022-10-11T14:53:01.414Z,5.60
2022-10-11T14:55:31.218Z,8.93
2022-10-11T14:57:59.566Z,5.53
2022-10-11T15:00:29.286Z,5.03
2022-10-11T15:02:58.733Z,7.07
2022-10-11T15:05:33.682Z,6.73
2022-10-11T15:08:02.434Z,10.30
2022-10-11T15:10:34.786Z,9.50
2022-10-11T15:13:03.615Z,7.03
2022-10-11T15:15:35.379Z,7.00
2022-10-11T15:18:07.163Z,7.37
2022-10-11T15:20:38.453Z,8.60
2022-10-11T15:23:09.527Z,6.20
2022-10-11T15:25:38.780Z,10.23
2022-10-11T15:28:07.943Z,8.30
2022-10-11T15:30:41.320Z,13.83
2022-10-11T15:33:11.283Z,7.37
2022-10-11T15:35:39.388Z,8.57
2022-10-11T15:38:07.744Z,10.83
2022-10-11T15:40:37.376Z,8.77
2022-10-11T15:43:05.806Z,10.60
2022-10-11T15:45:34.301Z,11.33
2022-10-11T15:48:02.457Z,9.50
2022-10-11T15:50:37.397Z,9.17
2022-10-11T15:53:13.434Z,7.77
2022-10-11T15:55:43.856Z,5.70
2022-10-11T15:58:14.876Z,8.70
2022-10-11T16:00:43.126Z,8.43
2022-10-11T16:03:13.104Z,8.17
2022-10-11T16:05:45.605Z,7.27
2022-10-11T16:08:13.993Z,9.00
2022-10-11T16:10:42.562Z,9.20
2022-10-11T16:13:11.432Z,7.77
2022-10-11T16:15:40.839Z,5.83
2022-10-11T16:18:10.847Z,8.40
2022-10-11T16:20:39.649Z,11.73
2022-10-11T16:23:09.872Z,8.53
2022-10-11T16:25:39.045Z,10.40
2022-10-11T16:28:08.308Z,9.33
2022-10-11T16:30:39.328Z,9.80
2022-10-11T16:33:07.462Z,12.50
2022-10-11T16:35:35.868Z,10.40
2022-10-11T16:38:04.130Z,12.17
2022-10-11T16:40:35.793Z,9.90
2022-10-11T16:43:07.985Z,12.40
2022-10-11T16:45:37.259Z,11.20
2022-10-11T16:48:06.180Z,10.90
2022-10-11T16:50:39.239Z,8.10
2022-10-11T16:53:07.793Z,10.63
2022-10-11T16:55:40.204Z,10.10
2022-10-11T16:58:09.788Z,9.43
2022-10-11T17:00:37.998Z,9.83
2022-10-11T17:03:06.249Z,9.60
2022-10-11T17:05:36.767Z,12.97
2022-10-11T17:08:04.925Z,12.10
2022-10-11T17:10:39.462Z,14.83
2022-10-11T17:13:09.061Z,8.90
2022-10-11T17:15:39.712Z,9.83
2022-10-11T17:18:07.893Z,14.27
2022-10-11T17:20:36.040Z,11.40
2022-10-11T17:23:04.537Z,11.07
2022-10-11T17:25:32.822Z,11.60
2022-10-11T17:28:01.077Z,8.67
2022-10-11T17:30:30.724Z,12.07
2022-10-11T17:32:58.830Z,17.03
2022-10-11T17:35:26.937Z,10.80
2022-10-11T17:37:55.088Z,11.53
2022-10-11T17:40:23.242Z,11.70
2022-10-11T17:42:51.444Z,14.67
2022-10-11T17:45:19.665Z,11.40
2022-10-11T17:47:49.135Z,10.63
2022-10-11T17:50:17.430Z,12.67
2022-10-11T17:52:45.847Z,8.00
2022-10-11T17:55:14.162Z,10.23
2022-10-11T17:57:42.478Z,17.03
2022-10-11T18:00:11.916Z,11.50
2022-10-11T18:02:40.207Z,13.80
2022-10-11T18:05:14.216Z,10.27
2022-10-11T18:07:42.343Z,10.70
2022-10-11T18:10:10.695Z,15.27
2022-10-11T18:12:38.799Z,14.17
2022-10-11T18:15:07.909Z,23.30
2022-10-11T18:17:36.271Z,21.87
2022-10-11T18:20:04.808Z,21.17
2022-10-11T18:22:34.302Z,23.33
2022-10-11T18:25:02.477Z,15.97
2022-10-11T18:27:30.665Z,16.00
2022-10-11T18:29:58.809Z,19.47
2022-10-11T18:32:26.903Z,20.60
2022-10-11T18:34:55.863Z,18.40
2022-10-11T18:37:23.960Z,23.50
2022-10-11T18:39:53.688Z,16.77
2022-10-11T18:42:21.866Z,17.53
2022-10-11T18:45:06.758Z,22.10
2022-10-11T18:47:54.318Z,16.30
2022-10-11T18:50:26.530Z,13.57
2022-10-11T18:52:54.820Z,9.17
2022-10-11T18:55:58.682Z,14.27
2022-10-11T18:58:31.890Z,9.73
2022-10-11T19:01:05.641Z,9.53
2022-10-11T19:03:35.307Z,15.83
2022-10-11T19:06:05.479Z,14.00
2022-10-11T19:08:34.222Z,11.40
2022-10-11T19:11:08.169Z,12.10
2022-10-11T19:13:37.151Z,12.13
2022-10-11T19:16:08.186Z,12.23
2022-10-11T19:18:41.712Z,17.27
2022-10-11T19:21:14.468Z,15.37
2022-10-11T19:23:44.867Z,12.40
2022-10-11T19:26:16.937Z,16.47
2022-10-11T19:28:45.747Z,15.53
2022-10-11T19:31:16.953Z,17.10
2022-10-11T19:33:47.987Z,11.70
2022-10-11T19:36:16.781Z,11.93
2022-10-11T19:38:46.417Z,11.00
2022-10-11T19:41:17.869Z,14.70
2022-10-11T19:43:46.500Z,14.00
2022-10-11T19:46:27.363Z,12.17
2022-10-11T19:49:05.017Z,13.70
2022-10-11T19:51:34.909Z,15.13
2022-10-11T19:54:05.448Z,11.10
2022-10-11T19:56:35.825Z,11.73
2022-10-11T19:59:06.313Z,10.50
2022-10-11T20:01:35.520Z,12.37
2022-10-11T20:04:05.907Z,16.23
2022-10-11T20:06:38.666Z,12.93
2022-10-11T20:11:56.595Z,11.00
2022-10-11T20:14:24.957Z,10.23
2022-10-11T20:16:53.637Z,9.67
2022-10-11T20:19:27.789Z,10.00
2022-10-11T20:21:58.501Z,10.90
2022-10-11T20:24:28.867Z,12.80
2022-10-11T20:26:58.383Z,10.50
2022-10-11T20:29:26.829Z,11.23
2022-10-11T20:31:56.224Z,10.00
2022-10-11T20:34:24.385Z,10.97
2022-10-11T20:36:52.718Z,18.23
2022-10-11T20:39:21.003Z,12.87
2022-10-11T20:41:49.184Z,11.77
2022-10-11T20:44:18.609Z,8.30
2022-10-11T20:46:46.814Z,10.63
2022-10-11T20:49:14.831Z,8.67
2022-10-11T20:51:43.799Z,8.93
2022-10-11T20:54:12.282Z,8.87
2022-10-11T20:56:40.802Z,9.80
2022-10-11T20:59:09.553Z,12.43
2022-10-11T21:01:41.324Z,10.10
2022-10-11T21:04:15.484Z,8.60
2022-10-11T21:06:43.579Z,14.93
2022-10-11T21:09:14.066Z,12.70
2022-10-11T21:11:44.607Z,10.30
2022-10-11T21:14:12.765Z,12.77
2022-10-11T21:16:42.334Z,10.93
2022-10-11T21:19:14.975Z,8.60
2022-10-11T21:21:44.581Z,8.43
2022-10-11T21:24:14.145Z,7.00
2022-10-11T21:26:42.278Z,13.90
2022-10-11T21:29:10.402Z,9.57
2022-10-11T21:31:38.522Z,10.00
2022-10-11T21:34:08.373Z,8.33
2022-10-11T21:36:36.502Z,13.80
2022-10-11T21:39:04.670Z,11.80
2022-10-11T21:41:33.963Z,13.53
2022-10-11T21:44:02.329Z,14.53
2022-10-11T21:47:01.397Z,11.13
2022-10-11T21:49:22.127Z,14.57
2022-10-11T21:51:50.193Z,14.60
2022-10-11T21:54:18.686Z,14.83
2022-10-11T21:56:46.796Z,11.07
2022-10-11T21:59:15.050Z,12.00
2022-10-11T22:01:44.030Z,11.77
2022-10-11T22:04:12.803Z,13.73
2022-10-11T22:06:42.277Z,9.57
2022-10-11T22:09:10.508Z,11.70
2022-10-11T22:11:39.023Z,15.17
2022-10-11T22:14:07.663Z,11.70
2022-10-11T22:16:36.109Z,16.07
2022-10-11T22:19:04.842Z,12.00
2022-10-11T22:21:33.075Z,13.87
2022-10-11T22:24:02.614Z,14.60
2022-10-11T22:26:32.143Z,14.77
2022-10-11T22:29:01.218Z,9.17
2022-10-11T22:31:29.912Z,11.27
2022-10-11T22:33:58.946Z,12.47
2022-10-11T22:36:27.407Z,9.30
2022-10-11T22:38:57.090Z,10.50
2022-10-11T22:41:26.769Z,8.93
2022-10-11T22:43:54.856Z,10.93
2022-10-11T22:46:23.405Z,14.13
2022-10-11T22:48:51.571Z,14.30
2022-10-11T22:51:19.713Z,8.77
2022-10-11T22:53:48.496Z,7.93
2022-10-11T22:56:16.768Z,10.03
2022-10-11T22:58:46.467Z,12.17
2022-10-11T23:01:16.818Z,13.97
2022-10-11T23:03:48.373Z,8.73
2022-10-11T23:06:16.511Z,9.30
2022-10-11T23:08:45.291Z,9.87
2022-10-11T23:11:13.676Z,7.40
2022-10-11T23:13:41.755Z,10.67
2022-10-11T23:16:13.095Z,11.87
2022-10-11T23:18:42.009Z,10.83
2022-10-11T23:21:10.692Z,9.07
2022-10-11T23:23:39.759Z,8.60
2022-10-11T23:26:11.465Z,9.50
2022-10-11T23:28:39.791Z,8.50
2022-10-11T23:31:09.323Z,12.27
2022-10-11T23:33:38.953Z,10.73
2022-10-11T23:36:13.190Z,8.83
2022-10-11T23:38:41.478Z,10.07
2022-10-11T23:41:09.767Z,8.40
2022-10-11T23:43:37.891Z,11.27
2022-10-11T23:46:06.287Z,10.93
2022-10-11T23:48:35.004Z,7.80
2022-10-11T23:51:04.725Z,8.93
2022-10-11T23:53:32.862Z,8.70
2022-10-11T23:56:00.958Z,7.57
2022-10-11T23:58:29.138Z,11.27
